createdAt,value
2023-04-12T00:01:08.518Z,7.15
2023-04-12T00:03:35.816Z,7.16
2023-04-12T00:06:07.527Z,7.17
2023-04-12T00:08:35.645Z,7.12
2023-04-12T00:11:03.699Z,7.10
2023-04-12T00:13:33.129Z,7.09
2023-04-12T00:16:01.014Z,7.11
2023-04-12T00:18:28.023Z,7.09
2023-04-12T00:20:56.283Z,7.08
2023-04-12T00:23:23.139Z,7.09
2023-04-12T00:25:49.929Z,7.07
2023-04-12T00:28:16.790Z,7.07
2023-04-12T00:30:44.002Z,7.08
2023-04-12T00:33:10.828Z,7.06
2023-04-12T00:35:38.240Z,7.03
2023-04-12T00:38:10.452Z,7.04
2023-04-12T00:40:42.703Z,7.04
2023-04-12T00:43:20.876Z,7.06
2023-04-12T00:45:48.182Z,7.00
2023-04-12T00:48:16.725Z,7.00
2023-04-12T00:50:44.933Z,6.99
2023-04-12T00:53:13.712Z,6.98
2023-04-12T00:55:47.465Z,6.94
2023-04-12T00:58:14.908Z,6.95
2023-04-12T01:00:41.973Z,6.96
2023-04-12T01:03:09.317Z,6.96
2023-04-12T01:05:49.290Z,6.94
2023-04-12T01:08:39.329Z,6.87
2023-04-12T01:11:40.452Z,6.83
2023-04-12T01:14:10.586Z,6.84
2023-04-12T01:16:51.343Z,6.80
2023-04-12T01:19:53.788Z,6.81
2023-04-12T01:22:27.426Z,6.83
2023-04-12T01:25:09.839Z,6.79
2023-04-12T01:27:58.741Z,6.75
2023-04-12T01:30:28.769Z,6.81
2023-04-12T01:33:00.208Z,6.82
2023-04-12T01:35:34.633Z,6.82
2023-04-12T01:38:04.296Z,6.83
2023-04-12T01:40:32.088Z,6.83
2023-04-12T01:43:11.044Z,6.77
2023-04-12T01:45:39.738Z,6.72
2023-04-12T01:48:09.835Z,6.63
2023-04-12T01:51:06.854Z,6.55
2023-04-12T01:53:48.987Z,6.53
2023-04-12T01:56:19.199Z,6.48
2023-04-12T01:58:51.041Z,6.44
2023-04-12T02:01:21.743Z,6.38
2023-04-12T02:03:50.864Z,6.33
2023-04-12T02:06:23.562Z,6.27
2023-04-12T02:08:59.159Z,6.22
2023-04-12T02:11:26.018Z,6.07
2023-04-12T02:13:53.130Z,6.22
2023-04-12T02:16:42.581Z,6.20
2023-04-12T02:19:10.770Z,6.18
2023-04-12T02:21:42.481Z,6.13
2023-04-12T02:24:10.101Z,6.13
2023-04-12T02:26:38.498Z,6.11
2023-04-12T02:29:09.282Z,6.10
2023-04-12T02:31:39.009Z,6.07
2023-04-12T02:34:08.946Z,6.04
2023-04-12T02:36:39.543Z,6.01
2023-04-12T02:39:07.462Z,5.97
2023-04-12T02:41:35.042Z,5.97
2023-04-12T02:44:02.596Z,5.97
2023-04-12T02:46:30.057Z,5.96
2023-04-12T02:48:59.337Z,5.95
2023-04-12T02:51:38.308Z,5.93
2023-04-12T02:54:06.147Z,5.94
2023-04-12T02:56:49.064Z,5.72
2023-04-12T02:59:33.091Z,5.88
2023-04-12T03:02:23.572Z,5.87
2023-04-12T03:04:53.413Z,5.86
2023-04-12T03:07:25.253Z,5.84
2023-04-12T03:09:53.736Z,5.83
2023-04-12T03:12:23.108Z,5.84
2023-04-12T03:15:11.998Z,5.82
2023-04-12T03:17:39.245Z,5.83
2023-04-12T03:20:10.601Z,5.80
2023-04-12T03:22:41.774Z,5.81
2023-04-12T03:25:10.445Z,5.79
2023-04-12T03:27:42.672Z,5.75
2023-04-12T03:30:15.021Z,5.72
2023-04-12T03:32:44.299Z,5.71
2023-04-12T03:35:11.755Z,5.66
2023-04-12T03:37:46.531Z,5.66
2023-04-12T03:40:14.873Z,5.66
2023-04-12T03:42:48.611Z,5.65
2023-04-12T03:45:15.786Z,5.66
2023-04-12T03:47:47.390Z,5.67
2023-04-12T03:50:16.307Z,5.67
2023-04-12T03:52:48.967Z,5.66
2023-04-12T03:55:18.374Z,5.61
2023-04-12T03:57:48.305Z,5.61
2023-04-12T04:00:15.651Z,5.63
2023-04-12T04:03:03.204Z,5.65
2023-04-12T04:05:33.325Z,5.69
2023-04-12T04:08:02.706Z,5.73
2023-04-12T04:10:36.857Z,5.78
2023-04-12T04:13:04.731Z,5.79
2023-04-12T04:15:32.795Z,5.82
2023-04-12T04:18:01.022Z,5.84
2023-04-12T04:20:28.300Z,5.82
2023-04-12T04:22:55.256Z,5.82
2023-04-12T04:25:29.843Z,5.83
2023-04-12T04:28:00.100Z,5.87
2023-04-12T04:30:30.165Z,5.86
2023-04-12T04:33:00.176Z,5.89
2023-04-12T04:35:27.710Z,5.94
2023-04-12T04:38:05.905Z,6.00
2023-04-12T04:40:33.719Z,6.04
2023-04-12T04:43:02.056Z,6.26
2023-04-12T04:45:36.562Z,7.30
2023-04-12T04:48:04.284Z,8.52
2023-04-12T04:50:31.445Z,9.36
2023-04-12T04:52:58.755Z,10.03
2023-04-12T04:55:28.548Z,10.51
2023-04-12T04:57:57.786Z,10.90
2023-04-12T05:00:26.727Z,11.24
2023-04-12T05:02:57.529Z,11.17
2023-04-12T05:05:30.323Z,10.98
2023-04-12T05:08:10.958Z,10.57
2023-04-12T05:10:46.667Z,10.40
2023-04-12T05:13:13.579Z,10.55
2023-04-12T05:15:41.475Z,10.45
2023-04-12T05:18:09.116Z,10.61
2023-04-12T05:20:38.544Z,10.50
2023-04-12T05:23:13.572Z,10.65
2023-04-12T05:25:51.193Z,10.43
2023-04-12T05:28:20.646Z,10.35
2023-04-12T05:30:50.244Z,10.16
2023-04-12T05:33:22.822Z,10.22
2023-04-12T05:35:51.969Z,10.42
2023-04-12T05:38:19.724Z,10.89
2023-04-12T05:40:54.416Z,11.32
2023-04-12T05:43:26.758Z,11.55
2023-04-12T05:45:57.877Z,12.14
2023-04-12T05:48:44.769Z,12.98
2023-04-12T05:51:40.904Z,13.60
2023-04-12T05:54:24.523Z,13.95
2023-04-12T05:56:55.289Z,14.86
2023-04-12T05:59:25.820Z,16.02
2023-04-12T06:01:53.855Z,16.51
2023-04-12T06:04:22.948Z,17.12
2023-04-12T06:07:56.094Z,17.38
2023-04-12T06:10:30.309Z,18.17
2023-04-12T06:12:58.841Z,18.68
2023-04-12T06:15:26.672Z,19.05
2023-04-12T06:17:54.599Z,19.54
2023-04-12T06:20:21.987Z,19.84
2023-04-12T06:22:49.891Z,20.10
2023-04-12T06:25:17.643Z,20.13
2023-04-12T06:27:46.791Z,20.22
2023-04-12T06:30:16.381Z,20.34
2023-04-12T06:32:44.923Z,20.47
2023-04-12T06:35:11.930Z,20.38
2023-04-12T06:37:39.250Z,20.34
2023-04-12T06:40:06.815Z,19.94
2023-04-12T06:42:33.941Z,19.57
2023-04-12T06:45:01.820Z,19.56
2023-04-12T06:47:30.407Z,19.68
2023-04-12T06:49:58.820Z,19.39
2023-04-12T06:52:26.798Z,19.32
2023-04-12T06:54:57.058Z,19.23
2023-04-12T06:57:24.584Z,19.18
2023-04-12T06:59:51.898Z,19.14
2023-04-12T07:02:20.957Z,19.22
2023-04-12T07:04:52.241Z,18.69
2023-04-12T07:07:28.141Z,18.62
2023-04-12T07:09:56.762Z,18.41
2023-04-12T07:12:23.749Z,18.17
2023-04-12T07:14:52.142Z,17.81
2023-04-12T07:17:19.113Z,18.01
2023-04-12T07:19:46.052Z,17.91
2023-04-12T07:22:21.880Z,17.77
2023-04-12T07:24:50.844Z,17.42
2023-04-12T07:27:17.902Z,17.35
2023-04-12T07:29:44.824Z,17.50
2023-04-12T07:32:11.772Z,17.77
2023-04-12T07:34:41.144Z,17.76
2023-04-12T07:37:08.048Z,17.31
2023-04-12T07:39:35.208Z,17.71
2023-04-12T07:42:02.308Z,17.94
2023-04-12T07:44:31.026Z,18.15
2023-04-12T07:46:57.918Z,18.21
2023-04-12T07:49:24.762Z,18.37
2023-04-12T07:51:51.509Z,18.27
2023-04-12T07:54:18.316Z,18.33
2023-04-12T07:56:59.464Z,17.99
2023-04-12T07:59:26.398Z,18.25
2023-04-12T08:01:53.330Z,18.54
2023-04-12T08:04:20.662Z,18.62
2023-04-12T08:06:47.854Z,18.73
2023-04-12T08:09:14.714Z,18.76
2023-04-12T08:11:41.731Z,18.67
2023-04-12T08:14:08.526Z,18.66
2023-04-12T08:16:35.373Z,18.57
2023-04-12T08:19:04.106Z,18.55
2023-04-12T08:21:30.954Z,18.59
2023-04-12T08:24:00.262Z,18.27
2023-04-12T08:26:29.841Z,18.29
2023-04-12T08:28:57.995Z,18.29
2023-04-12T08:31:24.762Z,18.61
2023-04-12T08:33:51.797Z,18.76
2023-04-12T08:36:19.329Z,18.66
2023-04-12T08:38:46.726Z,18.48
2023-04-12T08:41:14.829Z,18.31
2023-04-12T08:43:46.086Z,18.17
2023-04-12T08:46:15.809Z,18.07
2023-04-12T08:48:47.174Z,17.98
2023-04-12T08:51:19.559Z,17.52
2023-04-12T08:53:47.171Z,17.40
2023-04-12T08:56:16.309Z,17.36
2023-04-12T08:58:49.276Z,17.34
2023-04-12T09:01:16.767Z,16.95
2023-04-12T09:03:45.839Z,16.91
2023-04-12T09:06:13.746Z,16.26
2023-04-12T09:08:54.821Z,16.07
2023-04-12T09:11:28.825Z,16.20
2023-04-12T09:13:58.744Z,16.27
2023-04-12T09:16:35.804Z,16.09
2023-04-12T09:19:04.214Z,16.34
2023-04-12T09:21:32.392Z,16.55
2023-04-12T09:24:15.006Z,16.69
2023-04-12T09:26:42.969Z,16.66
2023-04-12T09:29:25.129Z,16.53
2023-04-12T09:32:07.447Z,16.69
2023-04-12T09:34:36.048Z,16.92
2023-04-12T09:37:20.886Z,16.72
2023-04-12T09:39:47.713Z,16.67
2023-04-12T09:42:32.604Z,16.73
2023-04-12T09:45:01.903Z,16.75
2023-04-12T09:47:40.478Z,16.69
2023-04-12T09:50:10.187Z,16.40
2023-04-12T09:52:38.560Z,16.39
2023-04-12T09:55:10.916Z,16.36
2023-04-12T09:57:47.087Z,16.09
2023-04-12T10:00:18.831Z,15.96
2023-04-12T10:02:51.451Z,15.82
2023-04-12T10:05:26.672Z,15.63
2023-04-12T10:07:55.215Z,15.56
2023-04-12T10:10:22.776Z,15.57
2023-04-12T10:12:50.781Z,15.51
2023-04-12T10:15:21.790Z,15.52
2023-04-12T10:17:58.405Z,15.42
2023-04-12T10:20:29.289Z,15.46
2023-04-12T10:22:59.564Z,15.55
2023-04-12T10:25:32.380Z,15.58
2023-04-12T10:28:14.991Z,15.51
2023-04-12T10:30:42.092Z,15.61
2023-04-12T10:33:14.746Z,15.47
2023-04-12T10:35:57.105Z,15.44
2023-04-12T10:38:26.954Z,15.47
2023-04-12T10:41:21.756Z,15.43
2023-04-12T10:43:52.453Z,15.41
2023-04-12T10:46:47.195Z,15.40
2023-04-12T10:49:18.084Z,15.67
2023-04-12T10:52:01.869Z,15.39
2023-04-12T10:54:28.749Z,15.32
2023-04-12T10:56:57.498Z,15.36
2023-04-12T10:59:56.068Z,15.26
2023-04-12T11:02:23.270Z,15.35
2023-04-12T11:05:05.670Z,15.36
2023-04-12T11:07:54.985Z,15.52
2023-04-12T11:10:46.164Z,15.65
2023-04-12T11:13:19.392Z,15.75
2023-04-12T11:15:46.615Z,15.97
2023-04-12T11:18:13.740Z,16.16
2023-04-12T11:20:41.157Z,16.27
2023-04-12T11:23:11.163Z,16.35
2023-04-12T11:25:39.276Z,16.49
2023-04-12T11:28:17.183Z,16.50
2023-04-12T11:30:58.558Z,16.42
2023-04-12T11:33:41.553Z,16.01
2023-04-12T11:36:12.350Z,16.31
2023-04-12T11:38:39.816Z,16.51
2023-04-12T11:41:09.180Z,16.71
2023-04-12T11:43:38.710Z,16.91
2023-04-12T11:46:06.425Z,17.03
2023-04-12T11:48:33.872Z,17.18
2023-04-12T11:51:11.061Z,17.28
2023-04-12T11:53:38.910Z,17.42
2023-04-12T11:56:06.092Z,17.50
2023-04-12T11:58:33.821Z,17.37
2023-04-12T12:01:05.222Z,17.34
2023-04-12T12:03:32.771Z,17.42
2023-04-12T12:06:00.804Z,17.41
2023-04-12T12:08:28.017Z,17.33
2023-04-12T12:11:07.175Z,17.11
2023-04-12T12:13:49.278Z,16.92
2023-04-12T12:16:17.766Z,17.05
2023-04-12T12:18:51.036Z,17.05
2023-04-12T12:21:20.901Z,17.02
2023-04-12T12:23:49.829Z,17.02
2023-04-12T12:26:28.088Z,16.95
2023-04-12T12:28:57.041Z,16.95
2023-04-12T12:31:26.493Z,16.84
2023-04-12T12:33:58.352Z,16.76
2023-04-12T12:36:36.230Z,16.72
2023-04-12T12:39:11.531Z,16.70
2023-04-12T12:41:39.674Z,16.68
2023-04-12T12:44:07.322Z,16.59
2023-04-12T12:49:04.047Z,16.49
2023-04-12T12:51:31.599Z,16.39
2023-04-12T12:53:58.488Z,16.35
2023-04-12T12:56:25.665Z,16.29
2023-04-12T12:58:52.441Z,16.23
2023-04-12T13:01:19.452Z,16.22
2023-04-12T13:03:47.451Z,16.24
2023-04-12T13:06:14.341Z,16.24
2023-04-12T13:08:42.397Z,16.23
2023-04-12T13:11:09.152Z,16.19
2023-04-12T13:13:36.630Z,16.18
2023-04-12T13:16:03.500Z,16.20
2023-04-12T13:18:30.382Z,16.15
2023-04-12T13:20:57.237Z,16.10
2023-04-12T13:23:24.531Z,16.10
2023-04-12T13:25:51.420Z,16.10
2023-04-12T13:28:18.282Z,15.96
2023-04-12T13:30:45.786Z,15.80
2023-04-12T13:33:15.373Z,15.71
2023-04-12T13:35:45.433Z,15.66
2023-04-12T13:38:12.215Z,15.72
2023-04-12T13:40:39.040Z,15.84
2023-04-12T13:43:07.673Z,15.87
2023-04-12T13:45:34.683Z,15.90
2023-04-12T13:48:01.697Z,15.93
2023-04-12T13:50:28.552Z,15.95
2023-04-12T13:52:55.381Z,15.98
2023-04-12T13:55:22.567Z,15.97
2023-04-12T13:57:49.498Z,15.97
2023-04-12T14:00:16.965Z,15.93
2023-04-12T14:02:44.147Z,15.84
2023-04-12T14:05:12.020Z,15.80
2023-04-12T14:07:38.894Z,15.84
2023-04-12T14:10:06.193Z,15.89
2023-04-12T14:12:33.042Z,15.93
2023-04-12T14:14:59.922Z,15.91
2023-04-12T14:17:32.369Z,15.86
2023-04-12T14:20:00.430Z,15.84
2023-04-12T14:22:30.297Z,15.88
2023-04-12T14:24:57.162Z,15.95
2023-04-12T14:27:23.889Z,15.96
2023-04-12T14:29:50.798Z,15.87
2023-04-12T14:32:17.619Z,15.81
2023-04-12T14:34:44.887Z,15.58
2023-04-12T14:37:11.791Z,15.36
2023-04-12T14:39:38.877Z,15.27
2023-04-12T14:42:06.476Z,15.25
2023-04-12T14:44:33.388Z,15.34
2023-04-12T14:47:00.226Z,15.46
2023-04-12T14:49:28.524Z,15.68
2023-04-12T14:51:57.209Z,15.91
2023-04-12T14:54:26.404Z,16.07
2023-04-12T14:56:55.767Z,16.19
2023-04-12T14:59:23.484Z,16.29
2023-04-12T15:01:52.925Z,16.34
2023-04-12T15:04:20.216Z,16.41
2023-04-12T15:06:47.215Z,16.43
2023-04-12T15:09:17.771Z,16.43
2023-04-12T15:11:47.600Z,16.41
2023-04-12T15:14:19.965Z,16.34
2023-04-12T15:16:49.241Z,16.21
2023-04-12T15:19:21.233Z,16.14
2023-04-12T15:21:55.062Z,16.10
2023-04-12T15:24:23.262Z,16.02
2023-04-12T15:26:52.587Z,16.06
2023-04-12T15:29:22.207Z,16.04
2023-04-12T15:31:49.097Z,16.09
2023-04-12T15:34:15.967Z,16.07
2023-04-12T15:36:43.868Z,16.01
2023-04-12T15:39:12.677Z,15.95
2023-04-12T15:41:40.678Z,15.87
2023-04-12T15:44:08.774Z,15.78
2023-04-12T15:46:36.353Z,15.72
2023-04-12T15:49:05.530Z,15.67
2023-04-12T15:51:32.637Z,15.67
2023-04-12T15:54:00.867Z,15.63
2023-04-12T15:56:29.776Z,15.60
2023-04-12T15:58:57.805Z,15.61
2023-04-12T16:01:25.553Z,15.61
2023-04-12T16:03:55.185Z,15.65
2023-04-12T16:06:23.275Z,15.70
2023-04-12T16:08:52.064Z,15.75
2023-04-12T16:11:21.434Z,15.77
2023-04-12T16:13:49.776Z,15.79
2023-04-12T16:16:17.898Z,15.77
2023-04-12T16:18:48.494Z,15.66
2023-04-12T16:21:20.188Z,15.62
2023-04-12T16:23:51.353Z,15.58
2023-04-12T16:26:22.627Z,15.55
2023-04-12T16:28:51.745Z,15.45
2023-04-12T16:31:21.586Z,15.45
2023-04-12T16:33:52.135Z,15.41
2023-04-12T16:36:19.544Z,15.41
2023-04-12T16:38:46.380Z,15.41
2023-04-12T16:41:13.138Z,15.37
2023-04-12T16:43:40.317Z,15.31
2023-04-12T16:46:08.838Z,15.31
2023-04-12T16:48:41.234Z,15.29
2023-04-12T16:51:08.347Z,15.26
2023-04-12T16:53:35.945Z,15.24
2023-04-12T16:56:02.760Z,15.22
2023-04-12T16:58:29.796Z,15.16
2023-04-12T17:00:57.018Z,15.10
2023-04-12T17:03:24.402Z,15.09
2023-04-12T17:05:51.758Z,15.05
2023-04-12T17:08:18.659Z,15.04
2023-04-12T17:10:45.467Z,14.99
2023-04-12T17:13:13.150Z,14.95
2023-04-12T17:15:39.978Z,14.94
2023-04-12T17:18:10.441Z,14.88
2023-04-12T17:20:38.213Z,14.82
2023-04-12T17:23:06.753Z,14.76
2023-04-12T17:25:34.207Z,14.72
2023-04-12T17:28:02.954Z,14.70
2023-04-12T17:30:30.393Z,14.71
2023-04-12T17:32:58.294Z,14.71
2023-04-12T17:35:25.031Z,14.71
2023-04-12T17:37:52.162Z,14.70
2023-04-12T17:40:19.265Z,14.70
2023-04-12T17:42:46.096Z,14.68
2023-04-12T17:45:14.719Z,14.66
2023-04-12T17:47:42.848Z,14.65
2023-04-12T17:50:12.527Z,14.58
2023-04-12T17:52:39.614Z,14.61
2023-04-12T17:55:09.293Z,14.62
2023-04-12T17:57:36.308Z,14.63
2023-04-12T18:00:05.271Z,14.62
2023-04-12T18:02:39.878Z,14.61
2023-04-12T18:05:07.692Z,14.60
2023-04-12T18:07:34.838Z,14.59
2023-04-12T18:10:03.333Z,14.53
2023-04-12T18:12:33.315Z,14.50
2023-04-12T18:15:00.119Z,14.50
2023-04-12T18:17:27.129Z,14.51
2023-04-12T18:19:57.029Z,14.52
2023-04-12T18:22:23.907Z,14.44
2023-04-12T18:24:50.819Z,14.42
2023-04-12T18:27:17.740Z,14.41
2023-04-12T18:29:46.814Z,14.41
2023-04-12T18:32:13.935Z,14.38
2023-04-12T18:34:40.652Z,14.35
2023-04-12T18:37:07.625Z,14.34
2023-04-12T18:39:35.776Z,14.37
2023-04-12T18:42:02.854Z,14.39
2023-04-12T18:44:30.557Z,14.41
2023-04-12T18:46:57.373Z,14.35
2023-04-12T18:49:24.305Z,14.33
2023-04-12T18:51:53.230Z,14.33
2023-04-12T18:54:21.168Z,14.19
2023-04-12T18:56:47.946Z,14.12
2023-04-12T18:59:17.825Z,14.14
2023-04-12T19:01:45.760Z,14.07
2023-04-12T19:04:12.901Z,14.05
2023-04-12T19:06:39.830Z,14.02
2023-04-12T19:09:07.988Z,14.04
2023-04-12T19:11:36.936Z,14.05
2023-04-12T19:14:04.555Z,13.97
2023-04-12T19:16:32.869Z,13.90
2023-04-12T19:19:00.416Z,13.83
2023-04-12T19:21:29.362Z,13.75
2023-04-12T19:23:56.593Z,13.67
2023-04-12T19:26:30.349Z,13.59
2023-04-12T19:28:58.988Z,13.46
2023-04-12T19:31:26.149Z,13.42
2023-04-12T19:33:56.131Z,13.39
2023-04-12T19:36:25.056Z,13.42
2023-04-12T19:38:52.210Z,13.35
2023-04-12T19:41:20.478Z,13.31
2023-04-12T19:43:49.176Z,13.23
2023-04-12T19:46:17.811Z,13.24
2023-04-12T19:48:45.561Z,13.25
2023-04-12T19:51:13.412Z,13.23
2023-04-12T19:53:40.469Z,13.18
2023-04-12T19:56:08.474Z,13.15
2023-04-12T19:58:35.321Z,13.13
2023-04-12T20:01:04.297Z,13.12
2023-04-12T20:03:32.992Z,13.08
2023-04-12T20:06:03.890Z,13.05
2023-04-12T20:08:31.843Z,13.03
2023-04-12T20:11:03.326Z,13.06
2023-04-12T20:13:31.561Z,13.00
2023-04-12T20:16:01.230Z,12.96
2023-04-12T20:18:29.755Z,12.91
2023-04-12T20:21:00.151Z,12.86
2023-04-12T20:23:27.305Z,12.84
2023-04-12T20:25:55.736Z,12.81
2023-04-12T20:28:23.516Z,12.80
2023-04-12T20:30:50.981Z,12.75
2023-04-12T20:33:20.650Z,12.71
2023-04-12T20:35:50.968Z,12.66
2023-04-12T20:38:18.875Z,12.58
2023-04-12T20:40:47.016Z,12.51
2023-04-12T20:43:14.532Z,12.50
2023-04-12T20:45:42.095Z,12.43
2023-04-12T20:48:10.362Z,12.42
2023-04-12T20:50:37.498Z,12.43
2023-04-12T20:53:05.100Z,12.43
2023-04-12T20:55:35.380Z,12.44
2023-04-12T20:58:03.999Z,12.37
2023-04-12T21:00:32.785Z,12.40
2023-04-12T21:03:03.044Z,12.32
2023-04-12T21:05:33.698Z,12.29
2023-04-12T21:08:01.177Z,12.24
2023-04-12T21:10:28.267Z,12.22
2023-04-12T21:12:55.444Z,12.20
2023-04-12T21:15:22.470Z,12.20
2023-04-12T21:17:51.673Z,12.20
2023-04-12T21:20:19.023Z,12.19
2023-04-12T21:22:48.090Z,12.19
2023-04-12T21:25:29.089Z,12.20
2023-04-12T21:27:55.887Z,12.20
2023-04-12T21:30:22.719Z,12.22
2023-04-12T21:32:51.896Z,12.27
2023-04-12T21:35:21.136Z,12.29
2023-04-12T21:37:47.900Z,12.31
2023-04-12T21:40:15.128Z,12.31
2023-04-12T21:42:42.187Z,12.28
2023-04-12T21:45:09.859Z,12.30
2023-04-12T21:47:38.828Z,12.27
2023-04-12T21:50:07.760Z,12.29
2023-04-12T21:52:34.784Z,12.27
2023-04-12T21:55:01.719Z,12.23
2023-04-12T21:57:33.468Z,12.17
2023-04-12T22:00:00.724Z,12.17
2023-04-12T22:02:27.956Z,12.16
2023-04-12T22:04:55.067Z,12.15
2023-04-12T22:07:21.913Z,12.15
2023-04-12T22:09:48.728Z,12.13
2023-04-12T22:12:18.065Z,12.12
2023-04-12T22:14:49.867Z,12.11
2023-04-12T22:17:21.426Z,12.09
2023-04-12T22:19:48.342Z,12.14
2023-04-12T22:22:16.140Z,12.14
2023-04-12T22:24:44.175Z,12.11
2023-04-12T22:27:11.118Z,12.11
2023-04-12T22:29:38.281Z,12.11
2023-04-12T22:32:05.203Z,12.03
2023-04-12T22:34:32.644Z,12.04
2023-04-12T22:36:59.473Z,11.97
2023-04-12T22:39:27.071Z,11.93
2023-04-12T22:41:53.927Z,11.91
2023-04-12T22:44:24.024Z,11.87
2023-04-12T22:46:54.864Z,11.90
2023-04-12T22:49:28.409Z,11.88
2023-04-12T22:51:55.907Z,11.88
2023-04-12T22:54:26.685Z,11.84
2023-04-12T22:56:53.671Z,11.79
2023-04-12T22:59:23.115Z,11.66
2023-04-12T23:01:52.838Z,11.64
2023-04-12T23:04:19.680Z,11.55
2023-04-12T23:06:47.449Z,11.45
2023-04-12T23:09:15.493Z,11.38
2023-04-12T23:11:42.916Z,11.39
2023-04-12T23:14:10.398Z,11.26
2023-04-12T23:16:47.155Z,11.22
2023-04-12T23:19:14.882Z,11.21
2023-04-12T23:21:43.194Z,11.16
2023-04-12T23:24:16.350Z,11.14
2023-04-12T23:26:45.274Z,11.12
2023-04-12T23:29:12.757Z,11.06
2023-04-12T23:31:40.873Z,11.05
2023-04-12T23:34:07.737Z,11.08
2023-04-12T23:36:36.269Z,11.11
2023-04-12T23:39:07.350Z,11.09
2023-04-12T23:41:34.185Z,11.08
2023-04-12T23:44:01.374Z,11.07
2023-04-12T23:46:28.390Z,11.04
2023-04-12T23:48:55.340Z,10.98
2023-04-12T23:51:22.751Z,10.94
2023-04-12T23:53:50.300Z,10.90
2023-04-12T23:56:23.046Z,10.83
2023-04-12T23:58:49.964Z,10.80
